PWSweather.com
Personal Weather Stations
Station Observations
SHAHALMS1
Eftra, Falkenberg, HA

EftraFalkenberg, HA

Lat: 56.85, Lon: 12.65

Elevation: 140

Station Type:

http://hem.passagen.se/risarp101

High Low Average
Temperature 45.3°F7.4°C 36.9°F2.7°C 42.4°F5.8°C
Dew Point 42.8°F6.0°C 34.8°F1.6°C 38.4°F3.6°C
Winds 29.4 mph 47.3 kmh 4.7 mph 7.6 kmh 16.0 mph SW25.7 kmh SW
Wind Gusts 48.3 mph77.7 kmh 11.8 mph19.0 kmh 34.0 mph54.7 kmh
Humidity 96% 70% 86%
Pressure 29.24 in990.2 mb 29.09 in985.1 mb -
Precipitation 0.48 in12.2 mm - -
Hour Temp Dew Point Humidity Winds Wind Gusts Pressure Precip Precip Rate Daily Precip Total
12:00 AM 36.9°F2.7°C 34.8°F1.6°C 92% 4.7 mph SE7.6 kmh SE 11.8 mph19.0 kmh 29.24 in990.2 mb 0.05 in1.3 mm 0.00 in0.0 mm 0.05 in1.3 mm
12:15 AM 37.0°F2.8°C 34.9°F1.6°C 92% 5.4 mph SE8.7 kmh SE 12.5 mph20.1 kmh 29.21 in989.2 mb 0.06 in1.5 mm 0.04 in1.0 mm 0.06 in1.5 mm
12:30 AM 37.8°F3.2°C 35.9°F2.2°C 93% 8.6 mph SE13.8 kmh SE 17.2 mph27.7 kmh 29.21 in989.2 mb 0.06 in1.5 mm 0.00 in0.0 mm 0.06 in1.5 mm
12:45 AM 38.3°F3.5°C 36.7°F2.6°C 94% 7.5 mph SE12.1 kmh SE 17.2 mph27.7 kmh 29.21 in989.2 mb 0.06 in1.5 mm 0.00 in0.0 mm 0.06 in1.5 mm
01:00 AM 38.8°F3.8°C 37.3°F2.9°C 94% 10.5 mph SE16.9 kmh SE 25.1 mph40.4 kmh 29.15 in987.1 mb 0.09 in2.3 mm 0.04 in1.0 mm 0.09 in2.3 mm
01:15 AM 39.7°F4.3°C 38.2°F3.4°C 94% 8.6 mph SE13.8 kmh SE 19.7 mph31.7 kmh 29.18 in988.1 mb 0.04 in1.0 mm 0.00 in0.0 mm 0.09 in2.3 mm
01:30 AM 40.5°F4.7°C 39.1°F3.9°C 95% 7.8 mph SSE12.6 kmh SSE 24.7 mph39.8 kmh 29.18 in988.1 mb 0.09 in2.3 mm 0.20 in5.1 mm 0.15 in3.8 mm
01:45 AM 41.5°F5.3°C 40.2°F4.6°C 95% 9.3 mph S15.0 kmh S 27.9 mph44.9 kmh 29.18 in988.1 mb 0.14 in3.6 mm 0.20 in5.1 mm 0.20 in5.1 mm
02:00 AM 43.0°F6.1°C 41.6°F5.3°C 95% 11.3 mph S18.2 kmh S 27.6 mph44.4 kmh 29.15 in987.1 mb 0.10 in2.5 mm 0.00 in0.0 mm 0.20 in5.1 mm
02:15 AM 43.3°F6.3°C 42.0°F5.6°C 95% 9.8 mph S15.8 kmh S 22.5 mph36.2 kmh 29.15 in987.1 mb 0.15 in3.8 mm 0.20 in5.1 mm 0.24 in6.1 mm
02:30 AM 43.5°F6.4°C 42.2°F5.7°C 95% 12.8 mph S20.6 kmh S 25.1 mph40.4 kmh 29.12 in986.1 mb 0.14 in3.6 mm 0.00 in0.0 mm 0.29 in7.4 mm
02:45 AM 43.5°F6.4°C 42.2°F5.7°C 95% 11.4 mph S18.3 kmh S 28.3 mph45.5 kmh 29.12 in986.1 mb 0.14 in3.6 mm 0.00 in0.0 mm 0.33 in8.4 mm
03:00 AM 43.7°F6.5°C 42.6°F5.9°C 96% 13.7 mph S22.0 kmh S 35.8 mph57.6 kmh 29.09 in985.1 mb 0.14 in3.6 mm 0.00 in0.0 mm 0.33 in8.4 mm
03:15 AM 43.7°F6.5°C 42.4°F5.8°C 95% 12.3 mph S19.8 kmh S 30.8 mph49.6 kmh 29.12 in986.1 mb 0.09 in2.3 mm 0.00 in0.0 mm 0.33 in8.4 mm
03:30 AM 43.7°F6.5°C 42.6°F5.9°C 96% 12.6 mph S20.3 kmh S 27.6 mph44.4 kmh 29.12 in986.1 mb 0.09 in2.3 mm 0.00 in0.0 mm 0.38 in9.7 mm
03:45 AM 43.7°F6.5°C 42.6°F5.9°C 96% 12.9 mph S20.8 kmh S 25.1 mph40.4 kmh 29.12 in986.1 mb 0.05 in1.3 mm 0.00 in0.0 mm 0.38 in9.7 mm
04:00 AM 43.7°F6.5°C 42.6°F5.9°C 96% 14.3 mph S23.0 kmh S 28.3 mph45.5 kmh 29.12 in986.1 mb 0.10 in2.5 mm 0.07 in1.8 mm 0.44 in11.2 mm
04:15 AM 43.7°F6.5°C 42.6°F5.9°C 96% 13.4 mph S21.6 kmh S 31.1 mph50.1 kmh 29.12 in986.1 mb 0.10 in2.5 mm 0.00 in0.0 mm 0.44 in11.2 mm
04:30 AM 43.7°F6.5°C 42.6°F5.9°C 96% 11.9 mph S19.2 kmh S 28.3 mph45.5 kmh 29.09 in985.1 mb 0.06 in1.5 mm 0.00 in0.0 mm 0.44 in11.2 mm
04:45 AM 43.5°F6.4°C 42.5°F5.8°C 96% 12.7 mph S20.4 kmh S 34.0 mph54.7 kmh 29.09 in985.1 mb 0.10 in2.5 mm 0.16 in4.1 mm 0.48 in12.2 mm
05:00 AM 43.5°F6.4°C 42.5°F5.8°C 96% 12.3 mph S19.8 kmh S 34.0 mph54.7 kmh 29.09 in985.1 mb 0.05 in1.3 mm 0.00 in0.0 mm 0.48 in12.2 mm
05:15 AM 43.5°F6.4°C 42.5°F5.8°C 96% 11.4 mph S18.3 kmh S 32.6 mph52.5 kmh 29.09 in985.1 mb 0.05 in1.3 mm 0.00 in0.0 mm 0.48 in12.2 mm
05:30 AM 43.7°F6.5°C 42.6°F5.9°C 96% 12.5 mph S20.1 kmh S 30.1 mph48.4 kmh 29.09 in985.1 mb 0.05 in1.3 mm 0.00 in0.0 mm 0.48 in12.2 mm
05:45 AM 43.7°F6.5°C 42.6°F5.9°C 96% 12.6 mph S20.3 kmh S 29.7 mph47.8 kmh 29.09 in985.1 mb 0.00 in0.0 mm 0.00 in0.0 mm 0.48 in12.2 mm
06:00 AM 43.9°F6.6°C 42.8°F6.0°C 96% 11.8 mph SSW19.0 kmh SSW 31.9 mph51.3 kmh 29.09 in985.1 mb 0.00 in0.0 mm 0.00 in0.0 mm 0.48 in12.2 mm
06:15 AM 43.9°F6.6°C 42.8°F6.0°C 96% 12.6 mph S20.3 kmh S 27.2 mph43.8 kmh 29.09 in985.1 mb 0.00 in0.0 mm 0.00 in0.0 mm 0.48 in12.2 mm
06:30 AM 43.9°F6.6°C 42.8°F6.0°C 96% 13.0 mph S20.9 kmh S 27.9 mph44.9 kmh 29.09 in985.1 mb 0.00 in0.0 mm 0.00 in0.0 mm 0.48 in12.2 mm
06:45 AM 43.9°F6.6°C 42.8°F6.0°C 96% 15.3 mph S24.6 kmh S 41.5 mph66.8 kmh 29.09 in985.1 mb 0.00 in0.0 mm 0.00 in0.0 mm 0.48 in12.2 mm
07:00 AM 43.9°F6.6°C 42.8°F6.0°C 96% 14.5 mph SSW23.3 kmh SSW 27.2 mph43.8 kmh 29.09 in985.1 mb 0.00 in0.0 mm 0.00 in0.0 mm 0.48 in12.2 mm
07:15 AM 43.7°F6.5°C 42.6°F5.9°C 96% 13.0 mph S20.9 kmh S 32.2 mph51.8 kmh 29.09 in985.1 mb 0.00 in0.0 mm 0.00 in0.0 mm 0.48 in12.2 mm
07:30 AM 43.7°F6.5°C 42.6°F5.9°C 96% 14.2 mph SSW22.9 kmh SSW 31.1 mph50.1 kmh 29.09 in985.1 mb 0.00 in0.0 mm 0.00 in0.0 mm 0.48 in12.2 mm
07:45 AM 43.5°F6.4°C 42.5°F5.8°C 96% 12.1 mph S19.5 kmh S 26.5 mph42.6 kmh 29.09 in985.1 mb 0.00 in0.0 mm 0.00 in0.0 mm 0.48 in12.2 mm
08:00 AM 43.3°F6.3°C 42.0°F5.6°C 95% 12.4 mph SW20.0 kmh SW 26.8 mph43.1 kmh 29.09 in985.1 mb 0.00 in0.0 mm 0.00 in0.0 mm 0.48 in12.2 mm
08:15 AM 43.2°F6.2°C 41.8°F5.4°C 95% 12.7 mph SW20.4 kmh SW 23.3 mph37.5 kmh 29.12 in986.1 mb 0.00 in0.0 mm 0.00 in0.0 mm 0.48 in12.2 mm
08:30 AM 43.2°F6.2°C 41.8°F5.4°C 95% 12.5 mph SW20.1 kmh SW 23.6 mph38.0 kmh 29.12 in986.1 mb 0.00 in0.0 mm 0.00 in0.0 mm 0.48 in12.2 mm
08:45 AM 43.0°F6.1°C 41.6°F5.3°C 95% 13.5 mph SSW21.7 kmh SSW 27.2 mph43.8 kmh 29.12 in986.1 mb 0.00 in0.0 mm 0.00 in0.0 mm 0.48 in12.2 mm
09:00 AM 43.0°F6.1°C 41.6°F5.3°C 95% 12.4 mph WSW20.0 kmh WSW 25.8 mph41.5 kmh 29.12 in986.1 mb 0.00 in0.0 mm 0.00 in0.0 mm 0.48 in12.2 mm
09:15 AM 42.8°F6.0°C 41.2°F5.1°C 94% 11.7 mph WSW18.8 kmh WSW 21.5 mph34.6 kmh 29.09 in985.1 mb 0.00 in0.0 mm 0.00 in0.0 mm 0.48 in12.2 mm
09:30 AM 42.6°F5.9°C 40.5°F4.7°C 92% 12.6 mph WSW20.3 kmh WSW 27.2 mph43.8 kmh 29.09 in985.1 mb 0.00 in0.0 mm 0.00 in0.0 mm 0.48 in12.2 mm
09:45 AM 42.8°F6.0°C 40.1°F4.5°C 90% 11.8 mph SW19.0 kmh SW 30.4 mph48.9 kmh 29.12 in986.1 mb 0.00 in0.0 mm 0.00 in0.0 mm 0.48 in12.2 mm
10:00 AM 43.3°F6.3°C 39.7°F4.3°C 87% 13.0 mph WSW20.9 kmh WSW 24.7 mph39.8 kmh 29.12 in986.1 mb 0.00 in0.0 mm 0.00 in0.0 mm 0.48 in12.2 mm
10:15 AM 43.9°F6.6°C 39.7°F4.3°C 85% 12.7 mph WSW20.4 kmh WSW 24.7 mph39.8 kmh 29.12 in986.1 mb 0.00 in0.0 mm 0.00 in0.0 mm 0.48 in12.2 mm
10:30 AM 44.4°F6.9°C 39.3°F4.1°C 82% 15.6 mph WSW25.1 kmh WSW 32.2 mph51.8 kmh 29.15 in987.1 mb 0.00 in0.0 mm 0.00 in0.0 mm 0.48 in12.2 mm
10:45 AM 44.4°F6.9°C 39.0°F3.9°C 81% 14.7 mph SW23.7 kmh SW 31.9 mph51.3 kmh 29.15 in987.1 mb 0.00 in0.0 mm 0.00 in0.0 mm 0.48 in12.2 mm
11:00 AM 44.1°F6.7°C 38.0°F3.3°C 79% 16.9 mph S27.2 kmh S 43.3 mph69.7 kmh 29.15 in987.1 mb 0.00 in0.0 mm 0.00 in0.0 mm 0.48 in12.2 mm
11:15 AM 44.2°F6.8°C 38.1°F3.4°C 79% 16.8 mph WSW27.0 kmh WSW 34.0 mph54.7 kmh 29.15 in987.1 mb 0.00 in0.0 mm 0.00 in0.0 mm 0.48 in12.2 mm
11:30 AM 44.4°F6.9°C 38.3°F3.5°C 79% 13.4 mph SW21.6 kmh SW 33.6 mph54.1 kmh 29.15 in987.1 mb 0.00 in0.0 mm 0.00 in0.0 mm 0.48 in12.2 mm
11:45 AM 44.6°F7.0°C 38.5°F3.6°C 79% 11.8 mph SSW19.0 kmh SSW 28.3 mph45.5 kmh 29.15 in987.1 mb 0.00 in0.0 mm 0.00 in0.0 mm 0.48 in12.2 mm
12:00 PM 44.6°F7.0°C 37.8°F3.2°C 77% 15.6 mph WSW25.1 kmh WSW 30.1 mph48.4 kmh 29.18 in988.1 mb 0.00 in0.0 mm 0.00 in0.0 mm 0.48 in12.2 mm
12:15 PM 44.6°F7.0°C 37.5°F3.1°C 76% 16.6 mph WSW26.7 kmh WSW 37.9 mph61.0 kmh 29.18 in988.1 mb 0.00 in0.0 mm 0.00 in0.0 mm 0.48 in12.2 mm
12:30 PM 44.4°F6.9°C 37.7°F3.2°C 77% 17.8 mph SW28.6 kmh SW 38.3 mph61.6 kmh 29.18 in988.1 mb 0.00 in0.0 mm 0.00 in0.0 mm 0.48 in12.2 mm
12:45 PM 44.8°F7.1°C 37.7°F3.2°C 76% 16.5 mph SW26.6 kmh SW 40.1 mph64.5 kmh 29.18 in988.1 mb 0.00 in0.0 mm 0.00 in0.0 mm 0.48 in12.2 mm
01:00 PM 45.0°F7.2°C 37.2°F2.9°C 74% 14.5 mph SSW23.3 kmh SSW 31.9 mph51.3 kmh 29.18 in988.1 mb 0.00 in0.0 mm 0.00 in0.0 mm 0.48 in12.2 mm
01:15 PM 44.6°F7.0°C 36.5°F2.5°C 73% 17.1 mph SW27.5 kmh SW 37.9 mph61.0 kmh 29.15 in987.1 mb 0.00 in0.0 mm 0.00 in0.0 mm 0.48 in12.2 mm
01:30 PM 44.8°F7.1°C 37.0°F2.8°C 74% 16.5 mph SW26.6 kmh SW 44.7 mph71.9 kmh 29.18 in988.1 mb 0.00 in0.0 mm 0.00 in0.0 mm 0.48 in12.2 mm
01:45 PM 44.8°F7.1°C 37.3°F2.9°C 75% 15.6 mph SSW25.1 kmh SSW 35.4 mph57.0 kmh 29.18 in988.1 mb 0.00 in0.0 mm 0.00 in0.0 mm 0.48 in12.2 mm
02:00 PM 45.3°F7.4°C 37.5°F3.1°C 74% 16.0 mph SSW25.7 kmh SSW 35.4 mph57.0 kmh 29.18 in988.1 mb 0.00 in0.0 mm 0.00 in0.0 mm 0.48 in12.2 mm
02:15 PM 44.8°F7.1°C 36.7°F2.6°C 73% 17.2 mph S27.7 kmh S 36.9 mph59.4 kmh 29.18 in988.1 mb 0.00 in0.0 mm 0.00 in0.0 mm 0.48 in12.2 mm
02:30 PM 44.4°F6.9°C 36.6°F2.6°C 74% 19.3 mph SW31.1 kmh SW 38.7 mph62.3 kmh 29.18 in988.1 mb 0.00 in0.0 mm 0.00 in0.0 mm 0.48 in12.2 mm
02:45 PM 45.3°F7.4°C 36.8°F2.7°C 72% 19.3 mph SW31.1 kmh SW 42.6 mph68.6 kmh 29.18 in988.1 mb 0.00 in0.0 mm 0.00 in0.0 mm 0.48 in12.2 mm
03:00 PM 44.8°F7.1°C 35.6°F2.0°C 70% 21.9 mph WSW35.2 kmh WSW 40.1 mph64.5 kmh 29.18 in988.1 mb 0.00 in0.0 mm 0.00 in0.0 mm 0.48 in12.2 mm
03:15 PM 45.1°F7.3°C 36.6°F2.6°C 72% 15.4 mph S24.8 kmh S 44.4 mph71.5 kmh 29.18 in988.1 mb 0.00 in0.0 mm 0.00 in0.0 mm 0.48 in12.2 mm
03:30 PM 45.1°F7.3°C 36.3°F2.4°C 71% 18.6 mph SSW29.9 kmh SSW 38.3 mph61.6 kmh 29.18 in988.1 mb 0.00 in0.0 mm 0.00 in0.0 mm 0.48 in12.2 mm
03:45 PM 45.0°F7.2°C 35.8°F2.1°C 70% 18.3 mph SW29.5 kmh SW 38.3 mph61.6 kmh 29.15 in987.1 mb 0.00 in0.0 mm 0.00 in0.0 mm 0.48 in12.2 mm
04:00 PM 44.2°F6.8°C 35.4°F1.9°C 71% 19.2 mph SSW30.9 kmh SSW 38.7 mph62.3 kmh 29.18 in988.1 mb 0.00 in0.0 mm 0.00 in0.0 mm 0.48 in12.2 mm
04:15 PM 43.3°F6.3°C 35.3°F1.8°C 73% 19.6 mph SSW31.5 kmh SSW 40.8 mph65.7 kmh 29.18 in988.1 mb 0.00 in0.0 mm 0.00 in0.0 mm 0.48 in12.2 mm
04:30 PM 42.8°F6.0°C 35.1°F1.7°C 74% 16.4 mph SW26.4 kmh SW 41.2 mph66.3 kmh 29.18 in988.1 mb 0.00 in0.0 mm 0.00 in0.0 mm 0.48 in12.2 mm
04:45 PM 42.3°F5.7°C 35.6°F2.0°C 77% 21.4 mph SW34.4 kmh SW 40.8 mph65.7 kmh 29.18 in988.1 mb 0.00 in0.0 mm 0.00 in0.0 mm 0.48 in12.2 mm
05:00 PM 42.3°F5.7°C 35.2°F1.8°C 76% 17.8 mph SW28.6 kmh SW 38.7 mph62.3 kmh 29.18 in988.1 mb 0.00 in0.0 mm 0.00 in0.0 mm 0.48 in12.2 mm
05:15 PM 41.9°F5.5°C 36.2°F2.3°C 80% 16.8 mph SW27.0 kmh SW 34.0 mph54.7 kmh 29.18 in988.1 mb 0.00 in0.0 mm 0.00 in0.0 mm 0.48 in12.2 mm
05:30 PM 41.5°F5.3°C 35.8°F2.1°C 80% 19.8 mph SW31.9 kmh SW 41.9 mph67.4 kmh 29.18 in988.1 mb 0.00 in0.0 mm 0.00 in0.0 mm 0.48 in12.2 mm
05:45 PM 41.2°F5.1°C 36.7°F2.6°C 84% 23.6 mph SW38.0 kmh SW 48.3 mph77.7 kmh 29.18 in988.1 mb 0.00 in0.0 mm 0.00 in0.0 mm 0.48 in12.2 mm
06:00 PM 40.6°F4.8°C 36.2°F2.3°C 84% 18.0 mph W29.0 kmh W 37.6 mph60.5 kmh 29.18 in988.1 mb 0.00 in0.0 mm 0.00 in0.0 mm 0.48 in12.2 mm
06:15 PM 40.6°F4.8°C 36.5°F2.5°C 85% 16.9 mph WSW27.2 kmh WSW 38.7 mph62.3 kmh 29.21 in989.2 mb 0.00 in0.0 mm 0.00 in0.0 mm 0.48 in12.2 mm
06:30 PM 40.5°F4.7°C 36.6°F2.6°C 86% 16.4 mph WSW26.4 kmh WSW 30.4 mph48.9 kmh 29.18 in988.1 mb 0.00 in0.0 mm 0.00 in0.0 mm 0.48 in12.2 mm
06:45 PM 40.5°F4.7°C 36.6°F2.6°C 86% 20.7 mph SW33.3 kmh SW 41.9 mph67.4 kmh 29.18 in988.1 mb 0.00 in0.0 mm 0.00 in0.0 mm 0.48 in12.2 mm
07:00 PM 40.5°F4.7°C 36.3°F2.4°C 85% 21.2 mph W34.1 kmh W 39.0 mph62.8 kmh 29.18 in988.1 mb 0.00 in0.0 mm 0.00 in0.0 mm 0.48 in12.2 mm
07:15 PM 40.3°F4.6°C 36.1°F2.3°C 85% 17.8 mph SSW28.6 kmh SSW 40.1 mph64.5 kmh 29.18 in988.1 mb 0.00 in0.0 mm 0.00 in0.0 mm 0.48 in12.2 mm
07:30 PM 40.3°F4.6°C 36.1°F2.3°C 85% 18.8 mph SSW30.3 kmh SSW 41.5 mph66.8 kmh 29.18 in988.1 mb 0.00 in0.0 mm 0.00 in0.0 mm 0.48 in12.2 mm
07:45 PM 40.3°F4.6°C 36.1°F2.3°C 85% 20.0 mph WSW32.2 kmh WSW 45.5 mph73.2 kmh 29.18 in988.1 mb 0.00 in0.0 mm 0.00 in0.0 mm 0.48 in12.2 mm
08:00 PM 40.5°F4.7°C 36.3°F2.4°C 85% 20.5 mph SW33.0 kmh SW 44.7 mph71.9 kmh 29.18 in988.1 mb 0.00 in0.0 mm 0.00 in0.0 mm 0.48 in12.2 mm
08:15 PM 40.5°F4.7°C 36.0°F2.2°C 84% 19.2 mph W30.9 kmh W 38.7 mph62.3 kmh 29.18 in988.1 mb 0.00 in0.0 mm 0.00 in0.0 mm 0.48 in12.2 mm
08:30 PM 40.5°F4.7°C 36.3°F2.4°C 85% 15.6 mph WSW25.1 kmh WSW 31.1 mph50.1 kmh 29.18 in988.1 mb 0.00 in0.0 mm 0.00 in0.0 mm 0.48 in12.2 mm
08:45 PM 40.5°F4.7°C 36.0°F2.2°C 84% 19.1 mph W30.7 kmh W 36.5 mph58.7 kmh 29.18 in988.1 mb 0.00 in0.0 mm 0.00 in0.0 mm 0.48 in12.2 mm
09:00 PM 40.5°F4.7°C 36.0°F2.2°C 84% 19.6 mph W31.5 kmh W 45.8 mph73.7 kmh 29.18 in988.1 mb 0.00 in0.0 mm 0.00 in0.0 mm 0.48 in12.2 mm
09:15 PM 40.3°F4.6°C 35.8°F2.1°C 84% 19.0 mph WSW30.6 kmh WSW 43.3 mph69.7 kmh 29.18 in988.1 mb 0.00 in0.0 mm 0.00 in0.0 mm 0.48 in12.2 mm
09:31 PM 39.9°F4.4°C 35.2°F1.8°C 83% 19.1 mph WSW30.7 kmh WSW 38.3 mph61.6 kmh 29.18 in988.1 mb 0.00 in0.0 mm 0.00 in0.0 mm 0.48 in12.2 mm
09:40 PM 39.9°F4.4°C 35.2°F1.8°C 83% 29.4 mph W47.3 kmh W 36.1 mph58.1 kmh 29.18 in988.1 mb 0.00 in0.0 mm 0.00 in0.0 mm 0.48 in12.2 mm
09:41 PM 39.9°F4.4°C 35.2°F1.8°C 83% 22.7 mph W36.5 kmh W 36.1 mph58.1 kmh 29.18 in988.1 mb 0.00 in0.0 mm 0.00 in0.0 mm 0.48 in12.2 mm
09:42 PM 39.9°F4.4°C 35.2°F1.8°C 83% 21.8 mph W35.1 kmh W 36.1 mph58.1 kmh 29.18 in988.1 mb 0.00 in0.0 mm 0.00 in0.0 mm 0.48 in12.2 mm
09:43 PM 39.9°F4.4°C 35.2°F1.8°C 83% 22.9 mph W36.9 kmh W 36.1 mph58.1 kmh 29.18 in988.1 mb 0.00 in0.0 mm 0.00 in0.0 mm 0.48 in12.2 mm
09:45 PM 40.1°F4.5°C 35.7°F2.1°C 84% 19.8 mph WSW31.9 kmh WSW 36.9 mph59.4 kmh 29.18 in988.1 mb 0.00 in0.0 mm 0.00 in0.0 mm 0.48 in12.2 mm
10:00 PM 40.1°F4.5°C 35.7°F2.1°C 84% 21.6 mph WSW34.8 kmh WSW 42.6 mph68.6 kmh 29.18 in988.1 mb 0.00 in0.0 mm 0.00 in0.0 mm 0.48 in12.2 mm
10:15 PM 40.1°F4.5°C 35.7°F2.1°C 84% 18.2 mph SW29.3 kmh SW 35.4 mph57.0 kmh 29.18 in988.1 mb 0.00 in0.0 mm 0.00 in0.0 mm 0.48 in12.2 mm
10:30 PM 40.3°F4.6°C 36.1°F2.3°C 85% 19.6 mph SW31.5 kmh SW 37.2 mph59.9 kmh 29.18 in988.1 mb 0.00 in0.0 mm 0.00 in0.0 mm 0.48 in12.2 mm
10:45 PM 40.3°F4.6°C 35.8°F2.1°C 84% 18.2 mph SW29.3 kmh SW 32.6 mph52.5 kmh 29.18 in988.1 mb 0.00 in0.0 mm 0.00 in0.0 mm 0.48 in12.2 mm
11:00 PM 40.3°F4.6°C 35.8°F2.1°C 84% 20.1 mph WSW32.3 kmh WSW 43.7 mph70.3 kmh 29.21 in989.2 mb 0.00 in0.0 mm 0.00 in0.0 mm 0.48 in12.2 mm
11:15 PM 40.5°F4.7°C 35.4°F1.9°C 82% 20.7 mph SW33.3 kmh SW 46.2 mph74.4 kmh 29.18 in988.1 mb 0.00 in0.0 mm 0.00 in0.0 mm 0.48 in12.2 mm
11:30 PM 40.5°F4.7°C 35.4°F1.9°C 82% 19.6 mph SW31.5 kmh SW 40.1 mph64.5 kmh 29.18 in988.1 mb 0.00 in0.0 mm 0.00 in0.0 mm 0.48 in12.2 mm
11:45 PM 40.5°F4.7°C 35.4°F1.9°C 82% 25.1 mph WSW40.4 kmh WSW 47.6 mph76.6 kmh 29.18 in988.1 mb 0.00 in0.0 mm 0.00 in0.0 mm 0.48 in12.2 mm